createdAt,value
2019-04-11T00:01:57.129Z,22.22
2019-04-11T00:04:28.183Z,22.75
2019-04-11T00:06:58.527Z,23.97
2019-04-11T00:09:28.809Z,23.95
2019-04-11T00:11:59.964Z,24.30
2019-04-11T00:14:30.235Z,23.67
2019-04-11T00:17:01.559Z,21.60
2019-04-11T00:19:31.915Z,22.40
2019-04-11T00:22:03.444Z,21.93
2019-04-11T00:24:34.541Z,22.70
2019-04-11T00:27:05.631Z,22.20
2019-04-11T00:29:36.593Z,24.30
2019-04-11T00:32:09.154Z,21.77
2019-04-11T00:34:39.335Z,21.97
2019-04-11T00:37:10.711Z,22.37
2019-04-11T00:39:41.048Z,22.67
2019-04-11T00:42:12.418Z,22.87
2019-04-11T00:44:43.155Z,22.98
2019-04-11T00:47:13.553Z,21.82
2019-04-11T00:49:43.772Z,22.67
2019-04-11T00:52:14.320Z,22.30
2019-04-11T00:54:45.258Z,21.85
2019-04-11T00:57:15.495Z,21.77
2019-04-11T00:59:46.773Z,21.93
2019-04-11T01:02:17.726Z,22.23
2019-04-11T01:04:48.758Z,22.58
2019-04-11T01:07:19.361Z,21.87
2019-04-11T01:09:50.604Z,22.15
2019-04-11T01:12:21.171Z,22.10
2019-04-11T01:14:51.755Z,21.85
2019-04-11T01:17:23.249Z,22.85
2019-04-11T01:20:13.846Z,22.67
2019-04-11T01:22:44.554Z,22.62
2019-04-11T01:25:15.042Z,23.38
2019-04-11T01:27:45.894Z,22.65
2019-04-11T01:30:18.445Z,22.93
2019-04-11T01:32:48.689Z,22.20
2019-04-11T01:35:19.316Z,22.30
2019-04-11T01:37:50.209Z,23.30
2019-04-11T01:40:21.363Z,22.85
2019-04-11T01:42:51.666Z,23.20
2019-04-11T01:45:23.372Z,22.52
2019-04-11T01:47:55.263Z,22.80
2019-04-11T01:50:27.172Z,23.98
2019-04-11T01:52:58.365Z,23.07
2019-04-11T01:55:29.701Z,24.37
2019-04-11T01:58:00.407Z,23.87
2019-04-11T02:00:32.294Z,24.47
2019-04-11T02:03:04.579Z,25.32
2019-04-11T02:05:36.971Z,25.72
2019-04-11T02:08:07.126Z,25.90
2019-04-11T02:10:39.063Z,24.90
2019-04-11T02:13:09.916Z,24.55
2019-04-11T02:15:40.808Z,24.45
2019-04-11T02:18:11.653Z,24.23
2019-04-11T02:20:41.997Z,23.40
2019-04-11T02:23:13.678Z,23.55
2019-04-11T02:25:45.438Z,24.05
2019-04-11T02:28:16.997Z,22.70
2019-04-11T02:30:48.882Z,24.02
2019-04-11T02:33:21.779Z,24.87
2019-04-11T02:35:52.076Z,25.50
2019-04-11T02:38:24.359Z,26.27
2019-04-11T02:40:55.145Z,25.72
2019-04-11T02:43:26.205Z,26.42
2019-04-11T02:46:08.998Z,26.05
2019-04-11T02:48:28.887Z,25.83
2019-04-11T02:51:00.920Z,25.00
2019-04-11T02:53:32.706Z,25.30
2019-04-11T02:56:03.272Z,26.02
2019-04-11T02:58:34.556Z,25.20
2019-04-11T03:01:07.244Z,25.17
2019-04-11T03:03:37.364Z,24.10
2019-04-11T03:06:09.302Z,23.60
2019-04-11T03:08:41.526Z,24.75
2019-04-11T03:11:14.187Z,24.55
2019-04-11T03:13:46.489Z,24.43
2019-04-11T03:16:29.275Z,24.47
2019-04-11T03:19:08.488Z,24.37
2019-04-11T03:21:22.486Z,24.40
2019-04-11T03:23:53.001Z,23.37
2019-04-11T03:26:25.045Z,26.00
2019-04-11T03:28:57.339Z,24.52
2019-04-11T03:32:02.436Z,24.30
2019-04-11T03:34:52.074Z,24.20
2019-04-11T03:39:21.770Z,23.83
2019-04-11T03:41:52.010Z,23.62
2019-04-11T03:44:18.230Z,22.90
2019-04-11T03:46:55.751Z,22.95
2019-04-11T03:49:20.707Z,23.20
2019-04-11T03:51:45.437Z,23.38
2019-04-11T03:54:15.732Z,23.17
2019-04-11T03:56:46.300Z,23.83
2019-04-11T03:59:19.056Z,22.48
2019-04-11T04:01:50.414Z,22.77
2019-04-11T04:04:21.790Z,22.52
2019-04-11T04:06:52.966Z,21.93
2019-04-11T04:09:23.951Z,21.68
2019-04-11T04:14:34.739Z,22.00
2019-04-11T04:17:08.465Z,22.27
2019-04-11T04:19:40.233Z,22.50
2019-04-11T04:22:13.405Z,22.60
2019-04-11T04:24:45.454Z,22.10
2019-04-11T04:27:17.268Z,22.10
2019-04-11T04:29:51.867Z,21.93
2019-04-11T04:32:20.836Z,21.48
2019-04-11T04:34:51.175Z,25.90
2019-04-11T04:37:24.719Z,22.30
2019-04-11T04:40:13.175Z,23.67
2019-04-11T04:42:32.221Z,23.98
2019-04-11T04:44:58.672Z,24.45
2019-04-11T04:47:37.116Z,24.50
2019-04-11T04:50:01.395Z,24.70
2019-04-11T04:52:33.914Z,22.90
2019-04-11T04:55:06.003Z,24.25
2019-04-11T04:57:37.688Z,22.93
2019-04-11T05:00:09.351Z,23.47
2019-04-11T05:02:41.967Z,22.30
2019-04-11T05:05:13.687Z,22.87
2019-04-11T05:07:46.365Z,22.05
2019-04-11T05:10:16.300Z,21.82
2019-04-11T05:12:46.840Z,21.30
2019-04-11T05:15:18.679Z,21.68
2019-04-11T05:17:49.275Z,22.85
2019-04-11T05:20:19.831Z,22.15
2019-04-11T05:22:51.302Z,22.73
2019-04-11T05:25:22.267Z,21.80
2019-04-11T05:27:53.902Z,22.90
2019-04-11T05:30:25.201Z,23.02
2019-04-11T05:32:55.704Z,22.73
2019-04-11T05:35:26.947Z,22.25
2019-04-11T05:37:57.899Z,22.10
2019-04-11T05:40:28.233Z,22.80
2019-04-11T05:42:59.567Z,22.10
2019-04-11T05:45:29.951Z,22.63
2019-04-11T05:48:01.107Z,22.73
2019-04-11T05:50:32.329Z,23.02
2019-04-11T05:53:03.641Z,23.32
2019-04-11T05:55:36.341Z,21.77
2019-04-11T05:58:11.343Z,21.57
2019-04-11T06:00:40.967Z,22.13
2019-04-11T06:03:11.741Z,20.25
2019-04-11T06:05:44.619Z,20.50
2019-04-11T06:08:22.667Z,20.15
2019-04-11T06:10:50.528Z,21.45
2019-04-11T06:13:22.985Z,21.25
2019-04-11T06:15:56.663Z,20.20
2019-04-11T06:18:33.058Z,19.10
2019-04-11T06:21:01.937Z,19.75
2019-04-11T06:23:33.590Z,18.35
2019-04-11T06:26:06.666Z,19.20
2019-04-11T06:28:38.081Z,18.95
2019-04-11T06:31:09.769Z,19.02
2019-04-11T06:33:42.788Z,18.48
2019-04-11T06:36:14.501Z,18.50
2019-04-11T06:38:47.059Z,20.12
2019-04-11T06:41:18.775Z,20.08
2019-04-11T06:43:50.468Z,18.80
2019-04-11T06:46:21.989Z,19.90
2019-04-11T06:48:53.956Z,20.17
2019-04-11T06:51:26.092Z,21.93
2019-04-11T06:53:58.752Z,20.60
2019-04-11T06:56:30.315Z,21.10
2019-04-11T06:59:01.952Z,20.62
2019-04-11T07:01:32.322Z,22.40
2019-04-11T07:04:04.946Z,20.07
2019-04-11T07:06:37.681Z,20.55
2019-04-11T07:09:10.252Z,20.23
2019-04-11T07:11:42.682Z,20.65
2019-04-11T07:14:14.677Z,19.87
2019-04-11T07:16:46.826Z,19.47
2019-04-11T07:19:18.386Z,20.00
2019-04-11T07:21:50.288Z,18.92
2019-04-11T07:24:22.394Z,18.27
2019-04-11T07:26:55.190Z,18.77
2019-04-11T07:29:26.887Z,19.07
2019-04-11T07:31:58.607Z,18.73
2019-04-11T07:34:33.156Z,17.77
2019-04-11T07:37:04.514Z,17.85
2019-04-11T07:39:37.551Z,18.55
2019-04-11T07:42:09.341Z,19.40
2019-04-11T07:44:40.906Z,18.30
2019-04-11T07:47:17.064Z,18.65
2019-04-11T07:49:45.155Z,18.52
2019-04-11T07:52:17.585Z,18.25
2019-04-11T07:54:48.022Z,17.90
2019-04-11T07:57:19.539Z,18.17
2019-04-11T07:59:51.317Z,17.65
2019-04-11T08:02:24.358Z,17.85
2019-04-11T08:04:55.725Z,17.82
2019-04-11T08:07:28.194Z,16.95
2019-04-11T08:12:19.221Z,17.55
2019-04-11T08:14:51.089Z,19.57
2019-04-11T08:17:30.938Z,17.48
2019-04-11T08:19:55.900Z,16.65
2019-04-11T08:22:27.738Z,17.40
2019-04-11T08:25:00.796Z,17.12
2019-04-11T08:27:33.713Z,17.40
2019-04-11T08:30:06.596Z,17.50
2019-04-11T08:32:38.194Z,16.73
2019-04-11T08:35:10.228Z,16.90
2019-04-11T08:37:43.372Z,17.00
2019-04-11T08:40:17.674Z,17.12
2019-04-11T08:42:50.736Z,17.53
2019-04-11T08:45:23.626Z,17.70
2019-04-11T08:47:57.268Z,22.27
2019-04-11T08:50:28.182Z,17.67
2019-04-11T08:53:00.374Z,17.47
2019-04-11T08:55:44.684Z,18.30
2019-04-11T08:58:04.907Z,17.15
2019-04-11T09:00:37.985Z,16.97
2019-04-11T09:03:09.890Z,15.63
2019-04-11T09:05:41.433Z,16.13
2019-04-11T09:08:14.134Z,16.27
2019-04-11T09:12:07.053Z,15.63
2019-04-11T09:14:38.692Z,14.00
2019-04-11T09:17:10.417Z,16.43
2019-04-11T09:19:43.059Z,16.45
2019-04-11T09:22:15.109Z,17.57
2019-04-11T09:24:46.997Z,18.57
2019-04-11T09:27:18.561Z,16.65
2019-04-11T09:29:50.367Z,16.82
2019-04-11T09:32:22.253Z,15.95
2019-04-11T09:34:54.252Z,16.67
2019-04-11T09:37:25.344Z,16.70
2019-04-11T09:39:57.222Z,16.57
2019-04-11T09:42:28.922Z,17.05
2019-04-11T09:45:01.348Z,16.50
2019-04-11T09:47:32.971Z,16.27
2019-04-11T09:50:04.924Z,16.03
2019-04-11T09:52:36.762Z,16.17
2019-04-11T09:55:31.157Z,15.38
2019-04-11T09:58:02.919Z,15.28
2019-04-11T10:00:34.864Z,16.40
2019-04-11T10:03:06.629Z,15.25
2019-04-11T10:07:48.168Z,17.85
2019-04-11T10:10:21.133Z,16.52
2019-04-11T10:12:54.121Z,21.15
2019-04-11T10:15:25.760Z,17.17
2019-04-11T10:17:57.334Z,16.50
2019-04-11T10:20:28.698Z,17.32
2019-04-11T10:23:01.520Z,17.30
2019-04-11T10:25:35.034Z,16.77
2019-04-11T10:28:06.874Z,16.65
2019-04-11T10:30:39.910Z,17.25
2019-04-11T10:33:12.883Z,17.87
2019-04-11T10:35:44.630Z,18.07
2019-04-11T10:38:16.231Z,18.05
2019-04-11T10:40:48.227Z,18.62
2019-04-11T10:43:20.310Z,17.62
2019-04-11T10:45:51.803Z,17.80
2019-04-11T10:48:34.542Z,17.87
2019-04-11T10:50:58.348Z,18.75
2019-04-11T10:53:29.118Z,18.73
2019-04-11T10:56:02.133Z,19.52
2019-04-11T10:58:33.760Z,18.42
2019-04-11T11:01:07.428Z,18.13
2019-04-11T11:03:39.348Z,19.27
2019-04-11T11:06:11.519Z,17.50
2019-04-11T11:08:43.784Z,18.70
2019-04-11T11:11:16.419Z,18.30
2019-04-11T11:13:48.302Z,18.98
2019-04-11T11:16:20.254Z,18.50
2019-04-11T11:19:19.611Z,20.25
2019-04-11T11:21:28.568Z,19.92
2019-04-11T11:23:56.897Z,19.82
2019-04-11T11:26:27.905Z,20.23
2019-04-11T11:29:00.435Z,20.00
2019-04-11T11:31:32.624Z,20.62
2019-04-11T11:34:03.043Z,20.43
2019-04-11T11:36:37.428Z,20.75
2019-04-11T11:39:09.083Z,20.40
2019-04-11T11:41:40.593Z,21.57
2019-04-11T11:44:11.759Z,21.75
2019-04-11T11:46:44.528Z,22.43
2019-04-11T11:49:23.510Z,22.32
2019-04-11T11:51:47.827Z,23.47
2019-04-11T11:54:19.777Z,23.10
2019-04-11T11:56:50.711Z,22.87
2019-04-11T11:59:23.025Z,24.02
2019-04-11T12:01:55.783Z,23.50
2019-04-11T12:04:27.802Z,22.55
2019-04-11T12:07:03.629Z,24.10
2019-04-11T12:09:32.260Z,22.98
2019-04-11T12:12:04.343Z,23.93
2019-04-11T12:14:37.178Z,24.02
2019-04-11T12:17:08.665Z,24.63
2019-04-11T12:19:47.829Z,25.60
2019-04-11T12:22:12.393Z,28.12
2019-04-11T12:24:44.903Z,32.55
2019-04-11T12:27:16.769Z,36.17
2019-04-11T12:29:50.448Z,38.00
2019-04-11T12:32:22.178Z,34.73
2019-04-11T12:34:53.745Z,32.00
2019-04-11T12:37:25.380Z,31.25
2019-04-11T12:39:57.171Z,30.37
2019-04-11T12:42:28.719Z,30.50
2019-04-11T12:45:00.266Z,30.65
2019-04-11T12:47:31.867Z,30.03
2019-04-11T12:50:03.729Z,29.70
2019-04-11T12:52:35.244Z,30.00
2019-04-11T12:55:08.495Z,30.25
2019-04-11T12:57:39.961Z,32.08
2019-04-11T13:00:12.202Z,30.37
2019-04-11T13:02:46.232Z,30.68
2019-04-11T13:05:16.789Z,30.95
2019-04-11T13:07:48.439Z,30.90
2019-04-11T13:10:18.955Z,30.57
2019-04-11T13:12:50.576Z,30.92
2019-04-11T13:15:22.311Z,30.85
2019-04-11T13:17:54.986Z,31.17
2019-04-11T13:20:26.859Z,30.77
2019-04-11T13:22:58.407Z,30.60
2019-04-11T13:25:30.076Z,31.70
2019-04-11T13:28:00.488Z,31.70
2019-04-11T13:30:32.024Z,31.43
2019-04-11T13:33:02.411Z,31.30
2019-04-11T13:35:34.074Z,31.20
2019-04-11T13:38:05.581Z,31.67
2019-04-11T13:40:37.523Z,30.90
2019-04-11T13:43:09.161Z,29.12
2019-04-11T13:45:40.560Z,29.15
2019-04-11T13:48:12.088Z,28.43
2019-04-11T13:50:42.789Z,28.92
2019-04-11T13:53:14.447Z,29.45
2019-04-11T13:55:44.820Z,30.23
2019-04-11T13:58:16.463Z,29.27
2019-04-11T14:00:48.410Z,29.32
2019-04-11T14:03:19.882Z,29.18
2019-04-11T14:05:51.083Z,30.20
2019-04-11T14:08:22.685Z,31.05
2019-04-11T14:10:54.466Z,30.95
2019-04-11T14:13:26.155Z,28.90
2019-04-11T14:15:57.930Z,28.47
2019-04-11T14:18:29.618Z,29.75
2019-04-11T14:21:01.156Z,27.82
2019-04-11T14:23:32.742Z,28.35
2019-04-11T14:26:04.313Z,26.67
2019-04-11T14:28:35.947Z,26.93
2019-04-11T14:31:07.723Z,26.25
2019-04-11T14:33:39.201Z,26.60
2019-04-11T14:36:10.798Z,26.93
2019-04-11T14:38:47.574Z,26.45
2019-04-11T14:41:15.557Z,26.47
2019-04-11T14:43:47.201Z,25.97
2019-04-11T14:46:18.610Z,26.17
2019-04-11T14:48:50.297Z,26.33
2019-04-11T14:51:23.816Z,25.70
2019-04-11T14:53:55.142Z,25.80
2019-04-11T14:56:27.229Z,25.10
2019-04-11T14:58:58.794Z,25.32
2019-04-11T15:01:30.219Z,25.40
2019-04-11T15:04:01.811Z,25.75
2019-04-11T15:06:33.556Z,24.35
2019-04-11T15:09:05.346Z,24.37
2019-04-11T15:11:37.015Z,24.10
2019-04-11T15:14:08.598Z,24.65
2019-04-11T15:16:40.461Z,23.85
2019-04-11T15:19:10.573Z,22.95
2019-04-11T15:21:42.150Z,22.75
2019-04-11T15:24:12.650Z,22.45
2019-04-11T15:26:44.541Z,21.25
2019-04-11T15:29:16.261Z,21.50
2019-04-11T15:31:47.767Z,22.05
2019-04-11T15:34:19.560Z,20.75
2019-04-11T15:36:51.359Z,20.35
2019-04-11T15:39:23.126Z,19.70
2019-04-11T15:42:01.789Z,19.60
2019-04-11T15:44:27.902Z,18.65
2019-04-11T15:47:00.686Z,17.35
2019-04-11T15:49:32.457Z,18.37
2019-04-11T15:52:06.336Z,17.52
2019-04-11T15:54:37.210Z,16.73
2019-04-11T15:57:12.288Z,17.37
2019-04-11T15:59:44.044Z,17.60
2019-04-11T16:02:15.440Z,20.05
2019-04-11T16:04:47.598Z,20.62
2019-04-11T16:07:19.190Z,22.60
2019-04-11T16:09:51.274Z,23.27
2019-04-11T16:12:22.962Z,23.10
2019-04-11T16:14:54.548Z,20.85
2019-04-11T16:17:26.338Z,19.35
2019-04-11T16:19:57.840Z,17.80
2019-04-11T16:22:29.546Z,17.73
2019-04-11T16:25:01.218Z,18.00
2019-04-11T16:27:34.294Z,17.27
2019-04-11T16:30:07.919Z,17.55
2019-04-11T16:32:39.187Z,17.50
2019-04-11T16:35:10.617Z,16.48
2019-04-11T16:37:41.975Z,17.98
2019-04-11T16:40:13.737Z,16.90
2019-04-11T16:42:47.666Z,17.23
2019-04-11T16:45:19.256Z,16.73
2019-04-11T16:47:51.127Z,16.85
2019-04-11T16:50:21.516Z,18.30
2019-04-11T16:52:51.729Z,17.90
2019-04-11T16:55:21.925Z,19.02
2019-04-11T16:57:52.243Z,19.92
2019-04-11T17:00:23.430Z,19.25
2019-04-11T17:02:55.010Z,19.23
2019-04-11T17:05:26.759Z,19.10
2019-04-11T17:07:58.578Z,18.83
2019-04-11T17:10:30.309Z,19.10
2019-04-11T17:13:00.632Z,19.20
2019-04-11T17:15:31.227Z,19.75
2019-04-11T17:18:02.175Z,18.77
2019-04-11T17:20:35.721Z,18.17
2019-04-11T17:23:05.364Z,18.33
2019-04-11T17:25:36.055Z,18.90
2019-04-11T17:28:08.869Z,19.70
2019-04-11T17:30:37.777Z,19.30
2019-04-11T17:33:08.014Z,19.07
2019-04-11T17:35:38.092Z,19.40
2019-04-11T17:38:08.681Z,18.32
2019-04-11T17:40:39.603Z,19.05
2019-04-11T17:43:13.441Z,18.48
2019-04-11T17:45:43.155Z,19.30
2019-04-11T17:48:13.343Z,18.73
2019-04-11T17:50:43.760Z,17.90
2019-04-11T17:53:14.067Z,18.95
2019-04-11T17:55:44.373Z,18.62
2019-04-11T17:58:14.571Z,19.62
2019-04-11T18:00:46.128Z,20.15
2019-04-11T18:03:16.395Z,19.17
2019-04-11T18:05:47.061Z,19.35
2019-04-11T18:08:19.765Z,20.02
2019-04-11T18:10:49.441Z,18.52
2019-04-11T18:13:19.952Z,18.70
2019-04-11T18:15:50.224Z,18.02
2019-04-11T18:18:20.549Z,18.20
2019-04-11T18:20:50.687Z,18.27
2019-04-11T18:23:21.174Z,18.12
2019-04-11T18:25:51.817Z,18.37
2019-04-11T18:28:22.458Z,18.00
2019-04-11T18:30:54.037Z,17.07
2019-04-11T18:33:25.260Z,17.95
2019-04-11T18:35:55.524Z,18.32
2019-04-11T18:38:25.722Z,18.00
2019-04-11T18:40:55.977Z,17.45
2019-04-11T18:43:26.247Z,17.82
2019-04-11T18:45:56.704Z,17.52
2019-04-11T18:48:27.197Z,17.30
2019-04-11T18:50:57.450Z,17.70
2019-04-11T18:53:27.916Z,17.37
2019-04-11T18:55:58.349Z,16.90
2019-04-11T18:58:28.735Z,16.62
2019-04-11T19:00:59.215Z,17.10
2019-04-11T19:03:36.106Z,16.85
2019-04-11T19:06:02.646Z,17.32
2019-04-11T19:08:32.958Z,16.87
2019-04-11T19:11:03.216Z,17.37
2019-04-11T19:13:33.778Z,17.57
2019-04-11T19:16:04.041Z,17.42
2019-04-11T19:18:34.507Z,18.95
2019-04-11T19:21:04.843Z,20.73
2019-04-11T19:23:36.661Z,19.65
2019-04-11T19:26:06.650Z,21.77
2019-04-11T19:28:36.859Z,22.95
2019-04-11T19:31:07.254Z,23.75
2019-04-11T19:33:37.049Z,22.85
2019-04-11T19:36:10.012Z,23.47
2019-04-11T19:38:43.038Z,22.80
2019-04-11T19:41:12.113Z,21.20
2019-04-11T19:43:42.617Z,21.60
2019-04-11T19:46:13.244Z,19.70
2019-04-11T19:48:43.620Z,20.70
2019-04-11T19:51:13.658Z,19.47
2019-04-11T19:53:44.030Z,19.27
2019-04-11T19:56:15.453Z,18.80
2019-04-11T19:58:45.773Z,19.27
2019-04-11T20:01:16.121Z,18.32
2019-04-11T20:03:46.436Z,18.25
2019-04-11T20:06:16.640Z,17.67
2019-04-11T20:08:47.830Z,17.57
2019-04-11T20:11:18.113Z,18.75
2019-04-11T20:13:48.601Z,18.07
2019-04-11T20:16:18.935Z,17.25
2019-04-11T20:18:51.151Z,17.47
2019-04-11T20:21:21.254Z,17.42
2019-04-11T20:23:51.615Z,17.30
2019-04-11T20:26:21.835Z,17.25
2019-04-11T20:28:52.351Z,17.48
2019-04-11T20:31:22.568Z,17.40
2019-04-11T20:33:52.891Z,17.60
2019-04-11T20:36:32.822Z,17.00
2019-04-11T20:38:54.878Z,16.97
2019-04-11T20:41:25.250Z,16.90
2019-04-11T20:49:12.212Z,17.00
2019-04-11T20:51:42.629Z,17.48
2019-04-11T20:54:12.808Z,17.43
2019-04-11T20:56:43.179Z,17.65
2019-04-11T20:59:13.474Z,17.30
2019-04-11T21:01:43.790Z,17.67
2019-04-11T21:04:13.958Z,17.62
2019-04-11T21:06:44.227Z,17.87
2019-04-11T21:09:14.514Z,17.02
2019-04-11T21:11:44.580Z,18.07
2019-04-11T21:14:15.008Z,17.63
2019-04-11T21:16:45.483Z,16.90
2019-04-11T21:19:15.774Z,16.82
2019-04-11T21:21:46.229Z,17.43
2019-04-11T21:24:16.510Z,17.77
2019-04-11T21:26:46.856Z,17.52
2019-04-11T21:29:17.171Z,17.62
2019-04-11T21:31:47.410Z,17.65
2019-04-11T21:34:17.798Z,17.90
2019-04-11T21:36:48.126Z,17.37
2019-04-11T21:39:18.202Z,17.55
2019-04-11T21:41:48.442Z,18.10
2019-04-11T21:44:18.735Z,17.80
2019-04-11T21:46:49.360Z,18.25
2019-04-11T21:49:19.892Z,18.45
2019-04-11T21:51:50.274Z,18.25
2019-04-11T21:54:20.506Z,17.67
2019-04-11T21:56:51.019Z,18.25
2019-04-11T21:59:21.284Z,18.37
2019-04-11T22:01:53.910Z,19.05
2019-04-11T22:04:26.896Z,19.37
2019-04-11T22:06:55.253Z,19.48
2019-04-11T22:09:25.492Z,19.00
2019-04-11T22:11:55.723Z,19.57
2019-04-11T22:14:26.095Z,19.62
2019-04-11T22:16:56.185Z,19.55
2019-04-11T22:19:26.568Z,20.05
2019-04-11T22:21:56.728Z,20.08
2019-04-11T22:24:26.961Z,20.40
2019-04-11T22:26:57.278Z,20.12
2019-04-11T22:29:27.706Z,20.68
2019-04-11T22:31:57.923Z,20.50
2019-04-11T22:34:29.718Z,20.87
2019-04-11T22:37:00.557Z,21.37
2019-04-11T22:39:31.528Z,22.37
2019-04-11T22:42:02.521Z,22.30
2019-04-11T22:44:32.773Z,21.87
2019-04-11T22:47:03.126Z,21.33
2019-04-11T22:49:33.282Z,21.67
2019-04-11T22:52:03.616Z,23.25
2019-04-11T22:54:34.009Z,23.20
2019-04-11T22:57:04.393Z,23.30
2019-04-11T22:59:34.959Z,23.02
2019-04-11T23:02:06.475Z,22.60
2019-04-11T23:04:36.606Z,24.10
2019-04-11T23:07:07.024Z,24.27
2019-04-11T23:09:37.177Z,24.53
2019-04-11T23:12:07.532Z,26.35
2019-04-11T23:14:37.801Z,26.82
2019-04-11T23:17:08.183Z,29.75
2019-04-11T23:19:38.410Z,32.23
2019-04-11T23:22:09.872Z,30.40
2019-04-11T23:24:40.516Z,31.57
2019-04-11T23:27:10.986Z,33.80
2019-04-11T23:29:41.339Z,32.85
2019-04-11T23:32:11.603Z,30.70
2019-04-11T23:34:41.773Z,29.70
2019-04-11T23:37:11.956Z,28.00
2019-04-11T23:39:42.343Z,25.95
2019-04-11T23:42:12.814Z,25.27
2019-04-11T23:44:43.310Z,26.20
2019-04-11T23:47:13.500Z,25.48
2019-04-11T23:49:43.683Z,25.83
2019-04-11T23:52:14.139Z,25.52
2019-04-11T23:54:44.349Z,24.82
2019-04-11T23:57:14.916Z,24.40
2019-04-11T23:59:45.254Z,25.52
